sensor_id;sensor_type;location;lat;lon;timestamp;P1;durP1;ratioP1;P2;durP2;ratioP2
20478;SDS011;10398;52.490;13.434;2022-09-09T00:00:40;5.90;;;3.80;;
20478;SDS011;10398;52.490;13.434;2022-09-09T00:03:16;8.93;;;3.87;;
20478;SDS011;10398;52.490;13.434;2022-09-09T00:05:59;5.83;;;4.17;;
20478;SDS011;10398;52.490;13.434;2022-09-09T00:09:21;7.90;;;4.30;;
20478;SDS011;10398;52.490;13.434;2022-09-09T00:11:52;8.10;;;4.27;;
20478;SDS011;10398;52.490;13.434;2022-09-09T00:17:42;7.67;;;4.00;;
20478;SDS011;10398;52.490;13.434;2022-09-09T00:20:44;5.43;;;3.60;;
20478;SDS011;10398;52.490;13.434;2022-09-09T00:26:04;5.77;;;3.90;;
20478;SDS011;10398;52.490;13.434;2022-09-09T00:28:42;6.37;;;4.00;;
20478;SDS011;10398;52.490;13.434;2022-09-09T00:31:36;5.40;;;3.57;;
20478;SDS011;10398;52.490;13.434;2022-09-09T00:34:09;9.17;;;3.90;;
20478;SDS011;10398;52.490;13.434;2022-09-09T00:36:37;8.40;;;4.33;;
20478;SDS011;10398;52.490;13.434;2022-09-09T00:39:05;13.03;;;6.43;;
20478;SDS011;10398;52.490;13.434;2022-09-09T00:44:37;6.60;;;4.47;;
20478;SDS011;10398;52.490;13.434;2022-09-09T00:47:17;5.17;;;3.87;;
20478;SDS011;10398;52.490;13.434;2022-09-09T00:53:19;7.67;;;4.00;;
20478;SDS011;10398;52.490;13.434;2022-09-09T00:56:08;6.80;;;4.57;;
20478;SDS011;10398;52.490;13.434;2022-09-09T00:58:40;6.53;;;3.97;;
20478;SDS011;10398;52.490;13.434;2022-09-09T01:01:15;7.07;;;4.40;;
20478;SDS011;10398;52.490;13.434;2022-09-09T01:03:43;6.57;;;3.80;;
20478;SDS011;10398;52.490;13.434;2022-09-09T01:06:22;5.93;;;4.30;;
20478;SDS011;10398;52.490;13.434;2022-09-09T01:11:27;5.90;;;4.20;;
20478;SDS011;10398;52.490;13.434;2022-09-09T01:14:10;7.23;;;4.30;;
20478;SDS011;10398;52.490;13.434;2022-09-09T01:16:42;6.90;;;4.10;;
20478;SDS011;10398;52.490;13.434;2022-09-09T01:19:10;5.73;;;4.20;;
20478;SDS011;10398;52.490;13.434;2022-09-09T01:21:48;5.57;;;3.80;;
20478;SDS011;10398;52.490;13.434;2022-09-09T01:24:31;7.10;;;4.10;;
20478;SDS011;10398;52.490;13.434;2022-09-09T01:27:19;5.40;;;3.80;;
20478;SDS011;10398;52.490;13.434;2022-09-09T01:29:45;5.97;;;4.00;;
20478;SDS011;10398;52.490;13.434;2022-09-09T01:35:06;6.33;;;3.73;;
20478;SDS011;10398;52.490;13.434;2022-09-09T01:37:36;5.67;;;3.80;;
20478;SDS011;10398;52.490;13.434;2022-09-09T01:40:01;8.97;;;3.83;;
20478;SDS011;10398;52.490;13.434;2022-09-09T01:42:27;7.43;;;4.13;;
20478;SDS011;10398;52.490;13.434;2022-09-09T01:44:53;5.73;;;3.83;;
20478;SDS011;10398;52.490;13.434;2022-09-09T01:47:19;6.10;;;3.90;;
20478;SDS011;10398;52.490;13.434;2022-09-09T01:49:45;5.13;;;3.50;;
20478;SDS011;10398;52.490;13.434;2022-09-09T01:52:13;4.63;;;3.40;;
20478;SDS011;10398;52.490;13.434;2022-09-09T01:54:39;6.03;;;4.13;;
20478;SDS011;10398;52.490;13.434;2022-09-09T02:02:56;14.10;;;6.87;;
20478;SDS011;10398;52.490;13.434;2022-09-09T02:08:08;6.60;;;4.03;;
20478;SDS011;10398;52.490;13.434;2022-09-09T02:10:42;6.53;;;3.80;;
20478;SDS011;10398;52.490;13.434;2022-09-09T02:13:13;9.00;;;4.43;;
20478;SDS011;10398;52.490;13.434;2022-09-09T02:15:48;5.63;;;3.70;;
20478;SDS011;10398;52.490;13.434;2022-09-09T02:18:44;5.80;;;3.97;;
20478;SDS011;10398;52.490;13.434;2022-09-09T02:21:18;11.70;;;4.50;;
20478;SDS011;10398;52.490;13.434;2022-09-09T02:23:44;7.00;;;4.37;;
20478;SDS011;10398;52.490;13.434;2022-09-09T02:26:13;6.40;;;4.00;;
20478;SDS011;10398;52.490;13.434;2022-09-09T02:28:45;7.37;;;3.90;;
20478;SDS011;10398;52.490;13.434;2022-09-09T02:31:14;6.03;;;3.70;;
20478;SDS011;10398;52.490;13.434;2022-09-09T02:33:45;6.10;;;3.80;;
20478;SDS011;10398;52.490;13.434;2022-09-09T02:36:17;5.97;;;4.00;;
20478;SDS011;10398;52.490;13.434;2022-09-09T02:38:46;6.10;;;4.07;;
20478;SDS011;10398;52.490;13.434;2022-09-09T02:41:22;6.03;;;3.70;;
20478;SDS011;10398;52.490;13.434;2022-09-09T02:43:52;4.97;;;3.53;;
20478;SDS011;10398;52.490;13.434;2022-09-09T02:46:31;7.53;;;4.03;;
20478;SDS011;10398;52.490;13.434;2022-09-09T02:52:20;12.03;;;6.00;;
20478;SDS011;10398;52.490;13.434;2022-09-09T02:58:11;9.00;;;4.60;;
20478;SDS011;10398;52.490;13.434;2022-09-09T03:00:41;6.27;;;3.97;;
20478;SDS011;10398;52.490;13.434;2022-09-09T03:03:08;8.20;;;3.63;;
20478;SDS011;10398;52.490;13.434;2022-09-09T03:05:34;5.00;;;3.60;;
20478;SDS011;10398;52.490;13.434;2022-09-09T03:08:00;7.23;;;3.80;;
20478;SDS011;10398;52.490;13.434;2022-09-09T03:10:27;5.50;;;3.80;;
20478;SDS011;10398;52.490;13.434;2022-09-09T03:12:52;6.80;;;4.07;;
20478;SDS011;10398;52.490;13.434;2022-09-09T03:15:18;5.77;;;3.73;;
20478;SDS011;10398;52.490;13.434;2022-09-09T03:17:44;6.77;;;4.07;;
20478;SDS011;10398;52.490;13.434;2022-09-09T03:20:09;6.40;;;4.17;;
20478;SDS011;10398;52.490;13.434;2022-09-09T03:22:35;7.10;;;4.33;;
20478;SDS011;10398;52.490;13.434;2022-09-09T03:25:01;10.07;;;4.10;;
20478;SDS011;10398;52.490;13.434;2022-09-09T03:27:27;6.40;;;3.53;;
20478;SDS011;10398;52.490;13.434;2022-09-09T03:29:54;6.20;;;3.83;;
20478;SDS011;10398;52.490;13.434;2022-09-09T03:32:21;7.50;;;3.93;;
20478;SDS011;10398;52.490;13.434;2022-09-09T03:34:47;11.07;;;4.17;;
20478;SDS011;10398;52.490;13.434;2022-09-09T03:37:15;7.53;;;3.90;;
20478;SDS011;10398;52.490;13.434;2022-09-09T03:39:41;7.50;;;3.60;;
20478;SDS011;10398;52.490;13.434;2022-09-09T03:42:06;6.63;;;3.50;;
20478;SDS011;10398;52.490;13.434;2022-09-09T03:44:32;5.27;;;3.53;;
20478;SDS011;10398;52.490;13.434;2022-09-09T03:46:57;6.20;;;3.43;;
20478;SDS011;10398;52.490;13.434;2022-09-09T03:49:25;6.83;;;3.50;;
20478;SDS011;10398;52.490;13.434;2022-09-09T03:51:53;5.93;;;3.47;;
20478;SDS011;10398;52.490;13.434;2022-09-09T03:54:23;5.90;;;3.50;;
20478;SDS011;10398;52.490;13.434;2022-09-09T03:56:50;5.17;;;3.00;;
20478;SDS011;10398;52.490;13.434;2022-09-09T03:59:15;6.00;;;3.30;;
20478;SDS011;10398;52.490;13.434;2022-09-09T04:01:41;4.80;;;3.10;;
20478;SDS011;10398;52.490;13.434;2022-09-09T04:04:07;3.60;;;2.60;;
20478;SDS011;10398;52.490;13.434;2022-09-09T04:06:33;4.60;;;2.93;;
20478;SDS011;10398;52.490;13.434;2022-09-09T04:09:00;6.40;;;3.40;;
20478;SDS011;10398;52.490;13.434;2022-09-09T04:11:27;5.80;;;3.10;;
20478;SDS011;10398;52.490;13.434;2022-09-09T04:13:53;4.83;;;3.20;;
20478;SDS011;10398;52.490;13.434;2022-09-09T04:16:18;4.97;;;2.90;;
20478;SDS011;10398;52.490;13.434;2022-09-09T04:18:45;4.23;;;2.83;;
20478;SDS011;10398;52.490;13.434;2022-09-09T04:21:11;6.30;;;3.10;;
20478;SDS011;10398;52.490;13.434;2022-09-09T04:23:37;6.63;;;3.37;;
20478;SDS011;10398;52.490;13.434;2022-09-09T04:26:03;6.60;;;3.00;;
20478;SDS011;10398;52.490;13.434;2022-09-09T04:28:30;4.43;;;3.00;;
20478;SDS011;10398;52.490;13.434;2022-09-09T04:31:03;7.07;;;3.47;;
20478;SDS011;10398;52.490;13.434;2022-09-09T04:33:29;7.73;;;3.17;;
20478;SDS011;10398;52.490;13.434;2022-09-09T04:35:56;6.80;;;3.00;;
20478;SDS011;10398;52.490;13.434;2022-09-09T04:38:22;6.10;;;3.10;;
20478;SDS011;10398;52.490;13.434;2022-09-09T04:40:48;5.93;;;3.03;;
20478;SDS011;10398;52.490;13.434;2022-09-09T04:43:15;6.73;;;2.77;;
20478;SDS011;10398;52.490;13.434;2022-09-09T04:45:41;6.07;;;2.63;;
20478;SDS011;10398;52.490;13.434;2022-09-09T04:48:08;4.97;;;3.00;;
20478;SDS011;10398;52.490;13.434;2022-09-09T04:50:34;5.17;;;2.87;;
20478;SDS011;10398;52.490;13.434;2022-09-09T04:53:04;6.33;;;2.93;;
20478;SDS011;10398;52.490;13.434;2022-09-09T04:55:30;5.07;;;3.23;;
20478;SDS011;10398;52.490;13.434;2022-09-09T04:57:56;7.53;;;2.97;;
20478;SDS011;10398;52.490;13.434;2022-09-09T05:00:22;5.37;;;3.00;;
20478;SDS011;10398;52.490;13.434;2022-09-09T05:02:48;7.33;;;3.20;;
20478;SDS011;10398;52.490;13.434;2022-09-09T05:05:14;5.67;;;3.40;;
20478;SDS011;10398;52.490;13.434;2022-09-09T05:07:40;6.83;;;2.70;;
20478;SDS011;10398;52.490;13.434;2022-09-09T05:10:06;5.67;;;3.07;;
20478;SDS011;10398;52.490;13.434;2022-09-09T05:12:32;4.90;;;3.10;;
20478;SDS011;10398;52.490;13.434;2022-09-09T05:14:58;5.63;;;3.03;;
20478;SDS011;10398;52.490;13.434;2022-09-09T05:17:23;10.30;;;3.47;;
20478;SDS011;10398;52.490;13.434;2022-09-09T05:19:49;6.57;;;3.93;;
20478;SDS011;10398;52.490;13.434;2022-09-09T05:22:20;9.23;;;2.80;;
20478;SDS011;10398;52.490;13.434;2022-09-09T05:24:48;4.10;;;2.57;;
20478;SDS011;10398;52.490;13.434;2022-09-09T05:27:15;4.60;;;2.80;;
20478;SDS011;10398;52.490;13.434;2022-09-09T05:29:44;4.53;;;3.03;;
20478;SDS011;10398;52.490;13.434;2022-09-09T05:32:10;7.37;;;2.80;;
20478;SDS011;10398;52.490;13.434;2022-09-09T05:34:36;5.73;;;3.10;;
20478;SDS011;10398;52.490;13.434;2022-09-09T05:37:05;4.10;;;2.67;;
20478;SDS011;10398;52.490;13.434;2022-09-09T05:39:32;7.53;;;2.90;;
20478;SDS011;10398;52.490;13.434;2022-09-09T05:41:58;4.80;;;2.60;;
20478;SDS011;10398;52.490;13.434;2022-09-09T05:44:24;7.97;;;2.50;;
20478;SDS011;10398;52.490;13.434;2022-09-09T05:46:52;7.53;;;2.53;;
20478;SDS011;10398;52.490;13.434;2022-09-09T05:49:19;7.37;;;2.70;;
20478;SDS011;10398;52.490;13.434;2022-09-09T05:51:44;5.00;;;2.90;;
20478;SDS011;10398;52.490;13.434;2022-09-09T05:54:10;7.73;;;2.53;;
20478;SDS011;10398;52.490;13.434;2022-09-09T05:56:38;6.17;;;2.77;;
20478;SDS011;10398;52.490;13.434;2022-09-09T05:59:04;3.57;;;2.03;;
20478;SDS011;10398;52.490;13.434;2022-09-09T06:01:32;5.27;;;2.53;;
20478;SDS011;10398;52.490;13.434;2022-09-09T06:03:59;4.47;;;2.20;;
20478;SDS011;10398;52.490;13.434;2022-09-09T06:06:26;2.93;;;2.00;;
20478;SDS011;10398;52.490;13.434;2022-09-09T06:08:53;5.27;;;2.27;;
20478;SDS011;10398;52.490;13.434;2022-09-09T06:11:23;4.33;;;2.20;;
20478;SDS011;10398;52.490;13.434;2022-09-09T06:13:51;5.37;;;2.47;;
20478;SDS011;10398;52.490;13.434;2022-09-09T06:16:19;5.13;;;1.70;;
20478;SDS011;10398;52.490;13.434;2022-09-09T06:18:48;5.83;;;1.90;;
20478;SDS011;10398;52.490;13.434;2022-09-09T06:21:16;5.00;;;2.40;;
20478;SDS011;10398;52.490;13.434;2022-09-09T06:23:46;5.33;;;1.87;;
20478;SDS011;10398;52.490;13.434;2022-09-09T06:26:23;4.73;;;2.40;;
20478;SDS011;10398;52.490;13.434;2022-09-09T06:28:51;4.67;;;2.13;;
20478;SDS011;10398;52.490;13.434;2022-09-09T06:31:19;4.63;;;2.10;;
20478;SDS011;10398;52.490;13.434;2022-09-09T06:33:46;6.13;;;2.97;;
20478;SDS011;10398;52.490;13.434;2022-09-09T06:38:39;5.07;;;2.53;;
20478;SDS011;10398;52.490;13.434;2022-09-09T06:41:10;6.37;;;2.37;;
20478;SDS011;10398;52.490;13.434;2022-09-09T06:43:37;4.90;;;1.60;;
20478;SDS011;10398;52.490;13.434;2022-09-09T06:48:30;4.77;;;2.17;;
20478;SDS011;10398;52.490;13.434;2022-09-09T06:53:43;5.40;;;2.20;;
20478;SDS011;10398;52.490;13.434;2022-09-09T06:58:36;3.83;;;1.90;;
20478;SDS011;10398;52.490;13.434;2022-09-09T07:01:09;3.37;;;2.03;;
20478;SDS011;10398;52.490;13.434;2022-09-09T07:03:40;5.10;;;1.87;;
20478;SDS011;10398;52.490;13.434;2022-09-09T07:06:07;6.23;;;1.90;;
20478;SDS011;10398;52.490;13.434;2022-09-09T07:08:39;6.27;;;1.50;;
20478;SDS011;10398;52.490;13.434;2022-09-09T07:11:06;4.47;;;1.70;;
20478;SDS011;10398;52.490;13.434;2022-09-09T07:13:33;4.40;;;2.00;;
20478;SDS011;10398;52.490;13.434;2022-09-09T07:16:09;4.53;;;1.80;;
20478;SDS011;10398;52.490;13.434;2022-09-09T07:18:38;5.63;;;2.10;;
20478;SDS011;10398;52.490;13.434;2022-09-09T07:21:05;4.83;;;1.30;;
20478;SDS011;10398;52.490;13.434;2022-09-09T07:23:31;6.63;;;1.70;;
20478;SDS011;10398;52.490;13.434;2022-09-09T07:25:57;4.33;;;1.57;;
20478;SDS011;10398;52.490;13.434;2022-09-09T07:28:24;5.00;;;2.10;;
20478;SDS011;10398;52.490;13.434;2022-09-09T07:30:58;3.03;;;1.57;;
20478;SDS011;10398;52.490;13.434;2022-09-09T07:33:28;4.57;;;1.50;;
20478;SDS011;10398;52.490;13.434;2022-09-09T07:36:02;4.80;;;1.63;;
20478;SDS011;10398;52.490;13.434;2022-09-09T07:38:55;6.43;;;2.90;;
20478;SDS011;10398;52.490;13.434;2022-09-09T07:41:41;3.40;;;1.90;;
20478;SDS011;10398;52.490;13.434;2022-09-09T07:44:10;6.03;;;1.90;;
20478;SDS011;10398;52.490;13.434;2022-09-09T07:46:37;4.38;;;1.77;;
20478;SDS011;10398;52.490;13.434;2022-09-09T07:49:07;5.25;;;1.73;;
20478;SDS011;10398;52.490;13.434;2022-09-09T07:51:34;3.90;;;1.73;;
20478;SDS011;10398;52.490;13.434;2022-09-09T07:54:04;5.85;;;1.67;;
20478;SDS011;10398;52.490;13.434;2022-09-09T07:56:31;6.25;;;1.80;;
20478;SDS011;10398;52.490;13.434;2022-09-09T07:58:58;3.13;;;1.27;;
20478;SDS011;10398;52.490;13.434;2022-09-09T08:01:25;4.13;;;1.57;;
20478;SDS011;10398;52.490;13.434;2022-09-09T08:03:56;5.13;;;1.50;;
20478;SDS011;10398;52.490;13.434;2022-09-09T08:06:27;4.20;;;1.70;;
20478;SDS011;10398;52.490;13.434;2022-09-09T08:08:54;2.45;;;1.40;;
20478;SDS011;10398;52.490;13.434;2022-09-09T08:11:20;4.30;;;1.50;;
20478;SDS011;10398;52.490;13.434;2022-09-09T08:13:48;8.88;;;1.75;;
20478;SDS011;10398;52.490;13.434;2022-09-09T08:16:19;1.95;;;1.05;;
20478;SDS011;10398;52.490;13.434;2022-09-09T08:18:50;3.58;;;1.40;;
20478;SDS011;10398;52.490;13.434;2022-09-09T08:21:17;4.15;;;1.40;;
20478;SDS011;10398;52.490;13.434;2022-09-09T08:23:46;2.78;;;1.20;;
20478;SDS011;10398;52.490;13.434;2022-09-09T08:26:14;4.15;;;1.30;;
20478;SDS011;10398;52.490;13.434;2022-09-09T08:28:42;4.40;;;1.30;;
20478;SDS011;10398;52.490;13.434;2022-09-09T08:31:12;3.80;;;1.27;;
20478;SDS011;10398;52.490;13.434;2022-09-09T08:33:39;2.47;;;1.20;;
20478;SDS011;10398;52.490;13.434;2022-09-09T08:36:06;7.90;;;1.52;;
20478;SDS011;10398;52.490;13.434;2022-09-09T08:38:34;4.93;;;1.23;;
20478;SDS011;10398;52.490;13.434;2022-09-09T08:41:06;4.70;;;1.23;;
20478;SDS011;10398;52.490;13.434;2022-09-09T08:43:58;4.82;;;1.20;;
20478;SDS011;10398;52.490;13.434;2022-09-09T08:52:15;4.40;;;1.00;;
20478;SDS011;10398;52.490;13.434;2022-09-09T08:54:44;4.18;;;1.15;;
20478;SDS011;10398;52.490;13.434;2022-09-09T08:57:13;6.20;;;1.48;;
20478;SDS011;10398;52.490;13.434;2022-09-09T08:59:43;5.55;;;1.38;;
20478;SDS011;10398;52.490;13.434;2022-09-09T09:02:32;7.07;;;1.13;;
20478;SDS011;10398;52.490;13.434;2022-09-09T09:05:25;3.28;;;1.25;;
20478;SDS011;10398;52.490;13.434;2022-09-09T09:10:50;1.95;;;0.98;;
20478;SDS011;10398;52.490;13.434;2022-09-09T09:13:20;2.75;;;1.48;;
20478;SDS011;10398;52.490;13.434;2022-09-09T09:15:59;6.50;;;1.35;;
20478;SDS011;10398;52.490;13.434;2022-09-09T09:18:31;2.15;;;1.30;;
20478;SDS011;10398;52.490;13.434;2022-09-09T09:20:58;4.35;;;1.40;;
20478;SDS011;10398;52.490;13.434;2022-09-09T09:23:31;2.92;;;1.05;;
20478;SDS011;10398;52.490;13.434;2022-09-09T09:26:06;4.95;;;1.27;;
20478;SDS011;10398;52.490;13.434;2022-09-09T09:28:36;4.03;;;1.27;;
20478;SDS011;10398;52.490;13.434;2022-09-09T09:36:09;5.35;;;1.40;;
20478;SDS011;10398;52.490;13.434;2022-09-09T09:38:36;2.42;;;1.08;;
20478;SDS011;10398;52.490;13.434;2022-09-09T09:41:02;6.90;;;1.58;;
20478;SDS011;10398;52.490;13.434;2022-09-09T09:43:29;1.58;;;0.95;;
20478;SDS011;10398;52.490;13.434;2022-09-09T09:45:56;2.33;;;1.10;;
20478;SDS011;10398;52.490;13.434;2022-09-09T09:48:23;8.55;;;2.05;;
20478;SDS011;10398;52.490;13.434;2022-09-09T09:50:51;6.93;;;1.55;;
20478;SDS011;10398;52.490;13.434;2022-09-09T09:53:32;3.63;;;1.38;;
20478;SDS011;10398;52.490;13.434;2022-09-09T09:56:01;3.08;;;1.42;;
20478;SDS011;10398;52.490;13.434;2022-09-09T09:58:27;3.90;;;1.50;;
20478;SDS011;10398;52.490;13.434;2022-09-09T10:00:57;3.10;;;1.20;;
20478;SDS011;10398;52.490;13.434;2022-09-09T10:03:30;3.05;;;1.42;;
20478;SDS011;10398;52.490;13.434;2022-09-09T10:05:57;2.33;;;1.00;;
20478;SDS011;10398;52.490;13.434;2022-09-09T10:08:23;3.90;;;1.55;;
20478;SDS011;10398;52.490;13.434;2022-09-09T10:16:42;2.88;;;1.05;;
20478;SDS011;10398;52.490;13.434;2022-09-09T10:19:31;4.47;;;1.88;;
20478;SDS011;10398;52.490;13.434;2022-09-09T10:27:23;4.88;;;1.05;;
20478;SDS011;10398;52.490;13.434;2022-09-09T10:32:37;2.95;;;0.98;;
20478;SDS011;10398;52.490;13.434;2022-09-09T10:35:09;2.58;;;0.88;;
20478;SDS011;10398;52.490;13.434;2022-09-09T10:43:21;3.90;;;1.25;;
20478;SDS011;10398;52.490;13.434;2022-09-09T10:57:37;4.70;;;1.25;;
20478;SDS011;10398;52.490;13.434;2022-09-09T11:00:13;3.40;;;0.90;;
20478;SDS011;10398;52.490;13.434;2022-09-09T11:03:06;3.17;;;1.13;;
20478;SDS011;10398;52.490;13.434;2022-09-09T11:05:43;2.47;;;0.95;;
20478;SDS011;10398;52.490;13.434;2022-09-09T11:08:16;2.10;;;0.82;;
20478;SDS011;10398;52.490;13.434;2022-09-09T11:10:45;4.53;;;0.90;;
20478;SDS011;10398;52.490;13.434;2022-09-09T11:16:15;3.05;;;1.00;;
20478;SDS011;10398;52.490;13.434;2022-09-09T11:19:01;2.28;;;0.60;;
20478;SDS011;10398;52.490;13.434;2022-09-09T11:21:36;2.58;;;0.65;;
20478;SDS011;10398;52.490;13.434;2022-09-09T11:24:13;2.90;;;1.00;;
20478;SDS011;10398;52.490;13.434;2022-09-09T11:26:51;2.30;;;0.80;;
20478;SDS011;10398;52.490;13.434;2022-09-09T11:32:29;4.20;;;1.45;;
20478;SDS011;10398;52.490;13.434;2022-09-09T11:40:55;2.83;;;0.60;;
20478;SDS011;10398;52.490;13.434;2022-09-09T11:45:53;2.22;;;0.68;;
20478;SDS011;10398;52.490;13.434;2022-09-09T11:48:28;2.70;;;0.73;;
20478;SDS011;10398;52.490;13.434;2022-09-09T11:50:58;3.92;;;0.60;;
20478;SDS011;10398;52.490;13.434;2022-09-09T11:53:26;3.58;;;0.70;;
20478;SDS011;10398;52.490;13.434;2022-09-09T11:56:11;3.20;;;0.80;;
20478;SDS011;10398;52.490;13.434;2022-09-09T11:58:53;2.65;;;0.80;;
20478;SDS011;10398;52.490;13.434;2022-09-09T12:04:18;1.55;;;0.85;;
20478;SDS011;10398;52.490;13.434;2022-09-09T12:20:19;3.83;;;0.40;;
20478;SDS011;10398;52.490;13.434;2022-09-09T12:25:58;1.52;;;0.70;;
20478;SDS011;10398;52.490;13.434;2022-09-09T12:33:50;2.10;;;0.60;;
20478;SDS011;10398;52.490;13.434;2022-09-09T12:36:21;3.08;;;0.60;;
20478;SDS011;10398;52.490;13.434;2022-09-09T12:38:53;1.00;;;0.50;;
20478;SDS011;10398;52.490;13.434;2022-09-09T12:41:22;2.03;;;0.60;;
20478;SDS011;10398;52.490;13.434;2022-09-09T12:44:02;2.45;;;0.60;;
20478;SDS011;10398;52.490;13.434;2022-09-09T12:46:43;1.55;;;0.50;;
20478;SDS011;10398;52.490;13.434;2022-09-09T12:49:30;0.90;;;0.73;;
20478;SDS011;10398;52.490;13.434;2022-09-09T12:52:04;2.17;;;0.70;;
20478;SDS011;10398;52.490;13.434;2022-09-09T12:54:34;1.80;;;0.50;;
20478;SDS011;10398;52.490;13.434;2022-09-09T12:57:01;1.13;;;0.40;;
20478;SDS011;10398;52.490;13.434;2022-09-09T12:59:35;2.28;;;0.55;;
20478;SDS011;10398;52.490;13.434;2022-09-09T13:02:10;1.92;;;0.50;;
20478;SDS011;10398;52.490;13.434;2022-09-09T13:04:43;0.68;;;0.45;;
20478;SDS011;10398;52.490;13.434;2022-09-09T13:07:11;2.30;;;0.80;;
20478;SDS011;10398;52.490;13.434;2022-09-09T13:09:38;3.70;;;0.80;;
20478;SDS011;10398;52.490;13.434;2022-09-09T13:12:04;3.53;;;0.75;;
20478;SDS011;10398;52.490;13.434;2022-09-09T13:14:37;2.90;;;0.73;;
20478;SDS011;10398;52.490;13.434;2022-09-09T13:17:03;9.50;;;2.95;;
20478;SDS011;10398;52.490;13.434;2022-09-09T13:19:35;2.38;;;0.95;;
20478;SDS011;10398;52.490;13.434;2022-09-09T13:22:13;3.05;;;0.70;;
20478;SDS011;10398;52.490;13.434;2022-09-09T13:24:45;2.78;;;1.02;;
20478;SDS011;10398;52.490;13.434;2022-09-09T13:27:23;2.63;;;0.80;;
20478;SDS011;10398;52.490;13.434;2022-09-09T13:30:19;2.78;;;1.00;;
20478;SDS011;10398;52.490;13.434;2022-09-09T13:32:47;3.17;;;0.57;;
20478;SDS011;10398;52.490;13.434;2022-09-09T13:35:24;2.42;;;0.70;;
20478;SDS011;10398;52.490;13.434;2022-09-09T13:37:50;1.80;;;0.70;;
20478;SDS011;10398;52.490;13.434;2022-09-09T13:40:17;2.25;;;0.80;;
20478;SDS011;10398;52.490;13.434;2022-09-09T13:42:44;5.72;;;1.20;;
20478;SDS011;10398;52.490;13.434;2022-09-09T13:45:21;2.63;;;1.00;;
20478;SDS011;10398;52.490;13.434;2022-09-09T13:47:51;2.65;;;0.73;;
20478;SDS011;10398;52.490;13.434;2022-09-09T13:50:24;5.15;;;0.75;;
20478;SDS011;10398;52.490;13.434;2022-09-09T13:52:55;4.80;;;1.20;;
20478;SDS011;10398;52.490;13.434;2022-09-09T13:55:28;3.05;;;0.90;;
20478;SDS011;10398;52.490;13.434;2022-09-09T14:00:25;6.85;;;2.08;;
20478;SDS011;10398;52.490;13.434;2022-09-09T14:02:53;3.50;;;1.05;;
20478;SDS011;10398;52.490;13.434;2022-09-09T14:05:20;5.78;;;0.82;;
20478;SDS011;10398;52.490;13.434;2022-09-09T14:07:47;3.80;;;0.70;;
20478;SDS011;10398;52.490;13.434;2022-09-09T14:10:13;3.08;;;1.00;;
20478;SDS011;10398;52.490;13.434;2022-09-09T14:12:39;1.88;;;0.95;;
20478;SDS011;10398;52.490;13.434;2022-09-09T14:15:06;2.30;;;0.85;;
20478;SDS011;10398;52.490;13.434;2022-09-09T14:17:34;2.72;;;0.60;;
20478;SDS011;10398;52.490;13.434;2022-09-09T14:20:01;4.07;;;1.30;;
20478;SDS011;10398;52.490;13.434;2022-09-09T14:22:33;3.42;;;1.20;;
20478;SDS011;10398;52.490;13.434;2022-09-09T14:25:00;3.40;;;1.23;;
20478;SDS011;10398;52.490;13.434;2022-09-09T14:27:26;3.00;;;0.90;;
20478;SDS011;10398;52.490;13.434;2022-09-09T14:29:51;1.70;;;0.70;;
20478;SDS011;10398;52.490;13.434;2022-09-09T14:32:17;3.28;;;0.57;;
20478;SDS011;10398;52.490;13.434;2022-09-09T14:34:43;1.27;;;0.55;;
20478;SDS011;10398;52.490;13.434;2022-09-09T14:37:09;3.10;;;0.70;;
20478;SDS011;10398;52.490;13.434;2022-09-09T14:39:34;4.72;;;0.93;;
20478;SDS011;10398;52.490;13.434;2022-09-09T14:42:00;3.63;;;0.60;;
20478;SDS011;10398;52.490;13.434;2022-09-09T14:44:27;2.05;;;0.65;;
20478;SDS011;10398;52.490;13.434;2022-09-09T14:46:52;8.25;;;2.50;;
20478;SDS011;10398;52.490;13.434;2022-09-09T14:49:19;3.00;;;1.30;;
20478;SDS011;10398;52.490;13.434;2022-09-09T14:51:45;2.10;;;1.00;;
20478;SDS011;10398;52.490;13.434;2022-09-09T14:54:10;2.70;;;1.20;;
20478;SDS011;10398;52.490;13.434;2022-09-09T14:56:36;4.30;;;0.73;;
20478;SDS011;10398;52.490;13.434;2022-09-09T14:59:03;5.35;;;1.90;;
20478;SDS011;10398;52.490;13.434;2022-09-09T15:01:29;4.82;;;0.93;;
20478;SDS011;10398;52.490;13.434;2022-09-09T15:03:57;3.40;;;0.82;;
20478;SDS011;10398;52.490;13.434;2022-09-09T15:06:28;4.97;;;1.13;;
20478;SDS011;10398;52.490;13.434;2022-09-09T15:08:56;3.17;;;1.17;;
20478;SDS011;10398;52.490;13.434;2022-09-09T15:11:23;2.90;;;1.02;;
20478;SDS011;10398;52.490;13.434;2022-09-09T15:13:51;4.57;;;1.70;;
20478;SDS011;10398;52.490;13.434;2022-09-09T15:16:18;4.03;;;1.65;;
20478;SDS011;10398;52.490;13.434;2022-09-09T15:18:45;4.00;;;1.52;;
20478;SDS011;10398;52.490;13.434;2022-09-09T15:21:12;2.22;;;0.93;;
20478;SDS011;10398;52.490;13.434;2022-09-09T15:23:40;2.45;;;0.95;;
20478;SDS011;10398;52.490;13.434;2022-09-09T15:26:06;1.38;;;0.40;;
20478;SDS011;10398;52.490;13.434;2022-09-09T15:28:32;1.33;;;0.40;;
20478;SDS011;10398;52.490;13.434;2022-09-09T15:31:07;1.20;;;0.40;;
20478;SDS011;10398;52.490;13.434;2022-09-09T15:33:50;1.98;;;0.63;;
20478;SDS011;10398;52.490;13.434;2022-09-09T15:36:22;3.17;;;0.45;;
20478;SDS011;10398;52.490;13.434;2022-09-09T15:38:49;2.03;;;0.38;;
20478;SDS011;10398;52.490;13.434;2022-09-09T15:41:16;2.67;;;0.73;;
20478;SDS011;10398;52.490;13.434;2022-09-09T15:43:45;4.80;;;2.13;;
20478;SDS011;10398;52.490;13.434;2022-09-09T15:46:26;3.13;;;1.20;;
20478;SDS011;10398;52.490;13.434;2022-09-09T15:49:14;1.05;;;0.40;;
20478;SDS011;10398;52.490;13.434;2022-09-09T15:51:43;2.35;;;0.93;;
20478;SDS011;10398;52.490;13.434;2022-09-09T15:54:14;2.50;;;0.55;;
20478;SDS011;10398;52.490;13.434;2022-09-09T15:56:42;2.45;;;0.80;;
20478;SDS011;10398;52.490;13.434;2022-09-09T15:59:08;2.42;;;0.57;;
20478;SDS011;10398;52.490;13.434;2022-09-09T16:01:36;2.20;;;0.90;;
20478;SDS011;10398;52.490;13.434;2022-09-09T16:04:04;3.55;;;1.33;;
20478;SDS011;10398;52.490;13.434;2022-09-09T16:06:30;3.63;;;1.20;;
20478;SDS011;10398;52.490;13.434;2022-09-09T16:08:56;1.98;;;0.68;;
20478;SDS011;10398;52.490;13.434;2022-09-09T16:11:27;5.78;;;1.05;;
20478;SDS011;10398;52.490;13.434;2022-09-09T16:13:54;2.35;;;0.95;;
20478;SDS011;10398;52.490;13.434;2022-09-09T16:16:21;2.50;;;0.90;;
20478;SDS011;10398;52.490;13.434;2022-09-09T16:18:50;3.03;;;0.60;;
20478;SDS011;10398;52.490;13.434;2022-09-09T16:21:19;1.77;;;0.80;;
20478;SDS011;10398;52.490;13.434;2022-09-09T16:23:45;3.78;;;1.00;;
20478;SDS011;10398;52.490;13.434;2022-09-09T16:26:12;2.42;;;0.80;;
20478;SDS011;10398;52.490;13.434;2022-09-09T16:28:39;2.75;;;0.90;;
20478;SDS011;10398;52.490;13.434;2022-09-09T16:31:09;3.67;;;0.82;;
20478;SDS011;10398;52.490;13.434;2022-09-09T16:33:39;6.68;;;1.45;;
20478;SDS011;10398;52.490;13.434;2022-09-09T16:36:07;3.53;;;1.20;;
20478;SDS011;10398;52.490;13.434;2022-09-09T16:38:34;3.45;;;0.93;;
20478;SDS011;10398;52.490;13.434;2022-09-09T16:41:01;0.95;;;0.63;;
20478;SDS011;10398;52.490;13.434;2022-09-09T16:43:29;4.90;;;0.68;;
20478;SDS011;10398;52.490;13.434;2022-09-09T16:45:55;2.53;;;0.93;;
20478;SDS011;10398;52.490;13.434;2022-09-09T16:48:21;2.42;;;0.70;;
20478;SDS011;10398;52.490;13.434;2022-09-09T16:50:46;1.35;;;0.70;;
20478;SDS011;10398;52.490;13.434;2022-09-09T16:53:13;2.13;;;0.68;;
20478;SDS011;10398;52.490;13.434;2022-09-09T16:55:39;4.47;;;0.70;;
20478;SDS011;10398;52.490;13.434;2022-09-09T16:58:07;4.90;;;0.77;;
20478;SDS011;10398;52.490;13.434;2022-09-09T17:00:35;1.67;;;0.77;;